createdAt,value
2023-03-06T00:00:23.503Z,100037.06
2023-03-06T00:02:51.723Z,100029.31
2023-03-06T00:05:19.195Z,100039.91
2023-03-06T00:07:45.829Z,100039.91
2023-03-06T00:10:15.030Z,100023.25
2023-03-06T00:12:42.060Z,100022.25
2023-03-06T00:15:09.454Z,100029.13
2023-03-06T00:17:36.387Z,100029.03
2023-03-06T00:20:04.513Z,99996.47
2023-03-06T00:22:31.248Z,100028.34
2023-03-06T00:24:58.056Z,100029.53
2023-03-06T00:27:26.172Z,100021.47
2023-03-06T00:29:57.897Z,100023.00
2023-03-06T00:32:25.974Z,100023.78
2023-03-06T00:34:54.141Z,100016.56
2023-03-06T00:37:22.657Z,100033.66
2023-03-06T00:39:49.655Z,100033.53
2023-03-06T00:42:17.322Z,100027.66
2023-03-06T00:44:44.269Z,100025.94
2023-03-06T00:47:11.245Z,100026.69
2023-03-06T00:49:38.442Z,100019.19
2023-03-06T00:52:05.280Z,100026.16
2023-03-06T00:54:31.922Z,100022.53
2023-03-06T00:56:58.590Z,100018.66
2023-03-06T00:59:25.287Z,100019.41
2023-03-06T01:01:51.981Z,100021.16
2023-03-06T01:04:18.743Z,100015.38
2023-03-06T01:06:46.145Z,100015.38
2023-03-06T01:09:13.129Z,100015.38
2023-03-06T01:11:39.918Z,100012.13
2023-03-06T01:14:06.734Z,100005.38
2023-03-06T01:16:33.653Z,100011.16
2023-03-06T01:19:00.522Z,100005.28
2023-03-06T01:21:27.209Z,100003.66
2023-03-06T01:23:53.860Z,100001.28
2023-03-06T01:26:20.492Z,99990.94
2023-03-06T01:28:47.302Z,100006.59
2023-03-06T01:31:13.946Z,100007.34
2023-03-06T01:33:40.603Z,99998.84
2023-03-06T01:36:09.590Z,99999.19
2023-03-06T01:38:36.384Z,100003.44
2023-03-06T01:41:04.359Z,100003.44
2023-03-06T01:43:37.082Z,99997.66
2023-03-06T01:46:28.462Z,99991.91
2023-03-06T01:48:56.841Z,99994.09
2023-03-06T01:51:28.806Z,99996.06
2023-03-06T01:53:57.446Z,99994.97
2023-03-06T01:56:25.044Z,99991.69
2023-03-06T01:58:52.789Z,99986.47
2023-03-06T02:01:20.035Z,99996.59
2023-03-06T02:03:49.738Z,99993.19
2023-03-06T02:06:19.755Z,99991.34
2023-03-06T02:08:49.529Z,99982.78
2023-03-06T02:11:22.120Z,99988.44
2023-03-06T02:13:50.145Z,99986.56
2023-03-06T02:16:17.817Z,99982.22
2023-03-06T02:18:45.817Z,99986.34
2023-03-06T02:21:20.248Z,99983.72
2023-03-06T02:24:15.811Z,99982.22
2023-03-06T02:26:44.841Z,99978.09
2023-03-06T02:29:11.701Z,99977.22
2023-03-06T02:31:38.392Z,99975.47
2023-03-06T02:34:14.125Z,99972.84
2023-03-06T02:36:45.393Z,99972.84
2023-03-06T02:39:13.263Z,99969.38
2023-03-06T02:41:40.039Z,99965.56
2023-03-06T02:44:06.942Z,99965.81
2023-03-06T02:46:33.651Z,99957.31
2023-03-06T02:49:00.431Z,99965.88
2023-03-06T02:51:27.073Z,99957.53
2023-03-06T02:53:53.794Z,99955.16
2023-03-06T02:56:20.485Z,99952.66
2023-03-06T02:58:47.140Z,99951.88
2023-03-06T03:01:13.907Z,99947.00
2023-03-06T03:03:40.646Z,99950.34
2023-03-06T03:06:07.807Z,99943.84
2023-03-06T03:08:34.962Z,99937.97
2023-03-06T03:11:02.036Z,99940.47
2023-03-06T03:13:28.688Z,99933.72
2023-03-06T03:16:03.981Z,99938.97
2023-03-06T03:18:30.629Z,99931.34
2023-03-06T03:20:57.733Z,99923.84
2023-03-06T03:23:25.295Z,99931.34
2023-03-06T03:25:52.085Z,99925.59
2023-03-06T03:28:19.261Z,99922.00
2023-03-06T03:30:46.264Z,99916.88
2023-03-06T03:33:12.992Z,99922.09
2023-03-06T03:35:39.736Z,99917.97
2023-03-06T03:38:06.399Z,99912.97
2023-03-06T03:40:33.080Z,99906.34
2023-03-06T03:42:59.794Z,99913.63
2023-03-06T03:45:26.586Z,99911.00
2023-03-06T03:47:53.248Z,99909.28
2023-03-06T03:50:20.168Z,99897.41
2023-03-06T03:52:46.847Z,99890.69
2023-03-06T03:55:13.524Z,99899.47
2023-03-06T03:57:40.234Z,99898.72
2023-03-06T04:00:08.009Z,99902.72
2023-03-06T04:02:34.685Z,99892.84
2023-03-06T04:05:01.472Z,99893.50
2023-03-06T04:07:28.158Z,99899.59
2023-03-06T04:09:54.983Z,99902.09
2023-03-06T04:12:21.620Z,99890.22
2023-03-06T04:14:48.270Z,99893.63
2023-03-06T04:17:15.045Z,99890.22
2023-03-06T04:19:43.447Z,99888.63
2023-03-06T04:22:10.079Z,99890.34
2023-03-06T04:24:36.741Z,99880.13
2023-03-06T04:27:03.409Z,99879.16
2023-03-06T04:29:30.077Z,99873.91
2023-03-06T04:31:56.788Z,99886.34
2023-03-06T04:34:23.489Z,99871.88
2023-03-06T04:36:50.193Z,99861.88
2023-03-06T04:39:17.239Z,99867.84
2023-03-06T04:41:43.873Z,99866.41
2023-03-06T04:44:10.770Z,99867.19
2023-03-06T04:46:37.613Z,99872.06
2023-03-06T04:49:04.296Z,99866.88
2023-03-06T04:51:37.464Z,99835.25
2023-03-06T04:54:05.097Z,99866.66
2023-03-06T04:56:31.794Z,99866.66
2023-03-06T04:58:58.502Z,99864.78
2023-03-06T05:05:14.136Z,99859.78
2023-03-06T05:07:41.219Z,99863.28
2023-03-06T05:10:12.035Z,99853.94
2023-03-06T05:12:39.440Z,99849.91
2023-03-06T05:15:07.430Z,99853.50
2023-03-06T05:17:34.488Z,99847.66
2023-03-06T05:20:01.191Z,99849.16
2023-03-06T05:22:28.376Z,99848.28
2023-03-06T05:24:55.026Z,99848.41
2023-03-06T05:27:22.141Z,99857.53
2023-03-06T05:29:48.862Z,99848.41
2023-03-06T05:32:16.985Z,99848.41
2023-03-06T05:34:43.835Z,99852.22
2023-03-06T05:37:10.549Z,99848.84
2023-03-06T05:39:37.405Z,99838.63
2023-03-06T05:42:04.329Z,99847.88
2023-03-06T05:44:34.152Z,99845.13
2023-03-06T05:47:01.760Z,99844.38
2023-03-06T05:49:32.883Z,99836.66
2023-03-06T05:51:59.940Z,99834.81
2023-03-06T05:54:26.683Z,99829.81
2023-03-06T05:56:53.593Z,99831.25
2023-03-06T05:59:20.335Z,99825.91
2023-03-06T06:01:47.076Z,99821.47
2023-03-06T06:04:13.801Z,99828.94
2023-03-06T06:06:40.435Z,99819.63
2023-03-06T06:09:07.128Z,99834.59
2023-03-06T06:11:33.785Z,99842.97
2023-03-06T06:14:00.450Z,99833.50
2023-03-06T06:16:27.099Z,99839.47
2023-03-06T06:18:53.740Z,99836.97
2023-03-06T06:21:20.442Z,99840.47
2023-03-06T06:23:47.122Z,99842.09
2023-03-06T06:26:13.764Z,99844.59
2023-03-06T06:28:40.443Z,99840.22
2023-03-06T06:31:12.644Z,99847.09
2023-03-06T06:33:40.100Z,99843.69
2023-03-06T06:36:18.765Z,99828.63
2023-03-06T06:38:45.460Z,99835.22
2023-03-06T06:41:38.918Z,99842.19
2023-03-06T06:43:59.292Z,99838.28
2023-03-06T06:47:10.782Z,99833.28
2023-03-06T06:49:14.755Z,99833.28
2023-03-06T06:51:41.549Z,99833.81
2023-03-06T06:54:08.295Z,99828.72
2023-03-06T06:56:34.956Z,99832.19
2023-03-06T06:59:15.737Z,99830.56
2023-03-06T07:01:42.948Z,99829.69
2023-03-06T07:04:12.335Z,99829.59
2023-03-06T07:06:38.828Z,99827.72
2023-03-06T07:09:08.178Z,99825.22
2023-03-06T07:11:34.713Z,99831.13
2023-03-06T07:14:01.948Z,99827.84
2023-03-06T07:16:28.523Z,99845.53
2023-03-06T07:18:54.999Z,99837.97
2023-03-06T07:21:21.844Z,99835.56
2023-03-06T07:23:48.400Z,99843.03
2023-03-06T07:26:14.878Z,99845.53
2023-03-06T07:28:51.878Z,99840.56
2023-03-06T07:31:24.842Z,99847.19
2023-03-06T07:33:53.081Z,99845.47
2023-03-06T07:36:20.859Z,99849.25
2023-03-06T07:38:47.386Z,99840.78
2023-03-06T07:41:16.288Z,99850.13
2023-03-06T07:43:44.157Z,99849.03
2023-03-06T07:46:12.388Z,99853.28
2023-03-06T07:48:39.013Z,99843.81
2023-03-06T07:51:08.316Z,99856.41
2023-03-06T07:53:35.226Z,99854.69
2023-03-06T07:56:08.473Z,99851.63
2023-03-06T07:58:36.651Z,99853.38
2023-03-06T08:01:09.234Z,99850.22
2023-03-06T08:03:36.278Z,99853.59
2023-03-06T08:06:10.037Z,99860.53
2023-03-06T08:08:39.399Z,99857.09
2023-03-06T08:11:07.702Z,99869.59
2023-03-06T08:13:35.268Z,99862.19
2023-03-06T08:16:02.094Z,99859.59
2023-03-06T08:18:28.620Z,99865.91
2023-03-06T08:21:02.760Z,99873.41
2023-03-06T08:23:29.462Z,99874.59
2023-03-06T08:25:57.990Z,99881.63
2023-03-06T08:28:24.938Z,99879.25
2023-03-06T08:30:51.569Z,99880.78
2023-03-06T08:33:18.051Z,99885.56
2023-03-06T08:35:44.637Z,99886.44
2023-03-06T08:38:11.133Z,99887.28
2023-03-06T08:40:38.440Z,99884.03
2023-03-06T08:43:05.080Z,99885.13
2023-03-06T08:45:31.606Z,99884.38
2023-03-06T08:47:58.393Z,99892.72
2023-03-06T08:50:25.112Z,99896.22
2023-03-06T08:52:51.796Z,99890.44
2023-03-06T08:55:18.622Z,99893.06
2023-03-06T08:57:45.803Z,99894.16
2023-03-06T09:00:13.900Z,99890.88
2023-03-06T09:02:40.521Z,99885.88
2023-03-06T09:05:08.496Z,99893.84
2023-03-06T09:07:35.565Z,99887.00
2023-03-06T09:10:02.046Z,99892.84
2023-03-06T09:12:30.722Z,99887.19
2023-03-06T09:14:57.373Z,99889.81
2023-03-06T09:17:23.839Z,99894.91
2023-03-06T09:19:50.902Z,99902.72
2023-03-06T09:22:17.376Z,99903.94
2023-03-06T09:24:43.858Z,99893.94
2023-03-06T09:27:10.329Z,99896.22
2023-03-06T09:29:36.992Z,99901.09
2023-03-06T09:32:04.787Z,99896.41
2023-03-06T09:34:31.351Z,99889.03
2023-03-06T09:36:58.009Z,99897.81
2023-03-06T09:39:25.843Z,99902.38
2023-03-06T09:41:53.557Z,99900.41
2023-03-06T09:49:02.532Z,99904.13
2023-03-06T09:51:39.225Z,99904.66
2023-03-06T09:54:16.213Z,99893.78
2023-03-06T09:56:48.753Z,99902.38
2023-03-06T09:59:21.784Z,99897.34
2023-03-06T10:02:18.775Z,99894.66
2023-03-06T10:04:55.966Z,99893.69
2023-03-06T10:07:27.383Z,99891.06
2023-03-06T10:09:59.204Z,99891.94
2023-03-06T10:12:29.109Z,99894.84
2023-03-06T10:15:16.114Z,99896.31
2023-03-06T10:17:43.644Z,99895.31
2023-03-06T10:20:36.685Z,99896.31
2023-03-06T10:23:54.528Z,99888.47
2023-03-06T10:26:26.830Z,99889.16
2023-03-06T10:29:27.042Z,99888.38
2023-03-06T10:32:03.770Z,99880.41
2023-03-06T10:34:35.339Z,99877.16
2023-03-06T10:37:19.866Z,99875.47
2023-03-06T10:39:48.234Z,99873.38
2023-03-06T10:42:14.711Z,99872.91
2023-03-06T10:44:41.188Z,99867.31
2023-03-06T10:47:27.853Z,99873.28
2023-03-06T10:50:00.371Z,99869.91
2023-03-06T10:52:35.254Z,99865.63
2023-03-06T10:55:26.396Z,99856.41
2023-03-06T10:57:53.075Z,99858.25
2023-03-06T11:00:26.350Z,99857.63
2023-03-06T11:03:22.802Z,99867.88
2023-03-06T11:06:04.842Z,99863.91
2023-03-06T11:08:32.250Z,99856.94
2023-03-06T11:11:03.030Z,99857.38
2023-03-06T11:13:36.310Z,99857.53
2023-03-06T11:16:15.964Z,99861.97
2023-03-06T11:18:55.579Z,99850.06
2023-03-06T11:21:47.567Z,99847.22
2023-03-06T11:24:20.205Z,99852.22
2023-03-06T11:27:30.369Z,99846.44
2023-03-06T11:29:59.591Z,99844.59
2023-03-06T11:32:42.971Z,99842.75
2023-03-06T11:35:13.762Z,99845.16
2023-03-06T11:37:54.133Z,99834.81
2023-03-06T11:40:29.267Z,99831.50
2023-03-06T11:43:04.286Z,99824.41
2023-03-06T11:45:44.835Z,99826.19
2023-03-06T11:48:14.278Z,99839.16
2023-03-06T11:50:46.181Z,99830.66
2023-03-06T11:53:19.103Z,99834.63
2023-03-06T11:55:51.541Z,99832.13
2023-03-06T11:58:43.031Z,99831.06
2023-03-06T12:01:24.282Z,99826.91
2023-03-06T12:04:14.227Z,99826.22
2023-03-06T12:06:52.008Z,99827.25
2023-03-06T12:09:43.631Z,99827.94
2023-03-06T12:12:22.065Z,99805.16
2023-03-06T12:14:57.723Z,99818.25
2023-03-06T12:17:48.003Z,99807.06
2023-03-06T12:20:33.195Z,99809.56
2023-03-06T12:23:17.913Z,99818.69
2023-03-06T12:25:55.423Z,99817.28
2023-03-06T12:28:38.960Z,99811.13
2023-03-06T12:31:17.819Z,99817.44
2023-03-06T12:34:06.039Z,99808.09
2023-03-06T12:36:57.647Z,99814.44
2023-03-06T12:39:40.483Z,99809.31
2023-03-06T12:42:38.657Z,99802.47
2023-03-06T12:45:18.508Z,99800.38
2023-03-06T12:47:48.124Z,99794.59
2023-03-06T12:50:29.393Z,99796.50
2023-03-06T12:52:59.017Z,99797.47
2023-03-06T12:55:26.301Z,99801.59
2023-03-06T12:57:53.774Z,99795.81
2023-03-06T13:00:32.367Z,99792.84
2023-03-06T13:03:18.790Z,99788.00
2023-03-06T13:06:23.185Z,99782.97
2023-03-06T13:09:14.679Z,99784.72
2023-03-06T13:11:47.048Z,99783.50
2023-03-06T13:14:24.529Z,99787.47
2023-03-06T13:16:51.389Z,99783.91
2023-03-06T13:19:26.402Z,99785.41
2023-03-06T13:21:55.792Z,99785.41
2023-03-06T13:24:31.953Z,99783.22
2023-03-06T13:27:12.275Z,99787.03
2023-03-06T13:29:38.897Z,99785.63
2023-03-06T13:32:14.509Z,99791.63
2023-03-06T13:34:43.222Z,99786.50
2023-03-06T13:37:19.757Z,99785.03
2023-03-06T13:40:12.103Z,99784.94
2023-03-06T13:42:44.705Z,99790.59
2023-03-06T13:45:16.587Z,99787.28
2023-03-06T13:50:46.780Z,99791.88
2023-03-06T13:53:53.125Z,99792.56
2023-03-06T13:56:41.322Z,99787.25
2023-03-06T13:59:42.996Z,99788.16
2023-03-06T14:02:28.196Z,99773.41
2023-03-06T14:04:57.453Z,99774.31
2023-03-06T14:07:51.943Z,99771.97
2023-03-06T14:10:25.836Z,99763.03
2023-03-06T14:13:02.842Z,99768.25
2023-03-06T14:15:42.402Z,99770.13
2023-03-06T14:18:25.149Z,99764.50
2023-03-06T14:20:51.968Z,99763.81
2023-03-06T14:23:21.289Z,99758.88
2023-03-06T14:25:54.619Z,99760.53
2023-03-06T14:28:36.536Z,99757.06
2023-03-06T14:31:05.725Z,99760.34
2023-03-06T14:33:34.685Z,99751.00
2023-03-06T14:36:08.152Z,99750.66
2023-03-06T14:38:43.798Z,99740.41
2023-03-06T14:41:11.763Z,99743.19
2023-03-06T14:43:39.707Z,99734.97
2023-03-06T14:46:07.062Z,99739.91
2023-03-06T14:48:42.493Z,99744.16
2023-03-06T14:51:17.608Z,99739.72
2023-03-06T14:53:47.960Z,99737.16
2023-03-06T14:56:18.733Z,99726.75
2023-03-06T14:58:53.883Z,99735.13
2023-03-06T15:01:42.050Z,99730.09
2023-03-06T15:04:26.413Z,99732.53
2023-03-06T15:06:54.479Z,99723.88
2023-03-06T15:09:27.805Z,99727.19
2023-03-06T15:12:08.423Z,99726.31
2023-03-06T15:14:37.868Z,99731.41
2023-03-06T15:17:38.860Z,99715.38
2023-03-06T15:20:10.243Z,99718.78
2023-03-06T15:22:43.513Z,99716.34
2023-03-06T15:25:26.710Z,99712.44
2023-03-06T15:27:58.853Z,99709.25
2023-03-06T15:30:33.446Z,99712.72
2023-03-06T15:33:25.725Z,99707.84
2023-03-06T15:35:57.032Z,99707.75
2023-03-06T15:38:42.681Z,99697.47
2023-03-06T15:41:33.924Z,99704.22
2023-03-06T15:44:02.560Z,99698.31
2023-03-06T15:46:29.916Z,99702.31
2023-03-06T15:49:04.230Z,99700.25
2023-03-06T15:51:32.155Z,99698.41
2023-03-06T15:54:11.119Z,99701.28
2023-03-06T15:56:43.444Z,99690.69
2023-03-06T15:59:22.023Z,99685.94
2023-03-06T16:01:49.289Z,99702.44
2023-03-06T16:04:17.030Z,99696.19
2023-03-06T16:06:45.844Z,99703.41
2023-03-06T16:09:13.450Z,99693.75
2023-03-06T16:11:47.029Z,99691.75
2023-03-06T16:14:23.537Z,99695.66
2023-03-06T16:16:52.366Z,99697.00
2023-03-06T16:19:26.786Z,99686.69
2023-03-06T16:21:54.342Z,99698.22
2023-03-06T16:24:20.859Z,99697.13
2023-03-06T16:26:52.610Z,99688.22
2023-03-06T16:29:25.126Z,99690.50
2023-03-06T16:31:51.726Z,99685.91
2023-03-06T16:34:19.748Z,99683.03
2023-03-06T16:36:48.026Z,99681.13
2023-03-06T16:39:20.009Z,99676.59
2023-03-06T16:41:47.058Z,99682.97
2023-03-06T16:44:13.670Z,99677.47
2023-03-06T16:46:45.587Z,99681.34
2023-03-06T16:49:17.258Z,99681.75
2023-03-06T16:51:44.125Z,99670.47
2023-03-06T16:54:11.113Z,99674.34
2023-03-06T16:56:37.595Z,99664.78
2023-03-06T16:59:04.206Z,99670.47
2023-03-06T17:01:30.799Z,99665.06
2023-03-06T17:03:57.360Z,99673.38
2023-03-06T17:09:14.171Z,99674.63
2023-03-06T17:11:42.886Z,99661.72
2023-03-06T17:14:09.390Z,99670.66
2023-03-06T17:16:40.059Z,99674.41
2023-03-06T17:19:07.326Z,99669.88
2023-03-06T17:21:35.349Z,99674.50
2023-03-06T17:24:03.600Z,99675.06
2023-03-06T17:26:30.172Z,99669.69
2023-03-06T17:28:56.700Z,99667.81
2023-03-06T17:31:26.527Z,99668.41
2023-03-06T17:34:00.389Z,99671.47
2023-03-06T17:36:31.572Z,99670.09
2023-03-06T17:39:00.224Z,99664.78
2023-03-06T17:41:27.015Z,99664.50
2023-03-06T17:43:57.708Z,99663.34
2023-03-06T17:46:24.653Z,99663.13
2023-03-06T17:48:51.137Z,99660.31
2023-03-06T17:51:17.596Z,99667.72
2023-03-06T17:53:44.127Z,99659.94
2023-03-06T17:56:13.439Z,99660.56
2023-03-06T17:58:39.916Z,99659.63
2023-03-06T18:01:15.858Z,99664.41
2023-03-06T18:03:47.789Z,99661.72
2023-03-06T18:06:15.256Z,99658.97
2023-03-06T18:08:42.103Z,99650.31
2023-03-06T18:11:10.849Z,99652.16
2023-03-06T18:13:40.106Z,99643.59
2023-03-06T18:16:08.063Z,99643.38
2023-03-06T18:18:35.248Z,99639.72
2023-03-06T18:21:09.322Z,99636.34
2023-03-06T18:23:37.412Z,99636.13
2023-03-06T18:26:13.463Z,99625.06
2023-03-06T18:28:42.324Z,99631.59
2023-03-06T18:31:21.951Z,99628.00
2023-03-06T18:33:49.386Z,99628.78
2023-03-06T18:36:16.777Z,99628.78
2023-03-06T18:38:45.412Z,99614.53
2023-03-06T18:41:13.460Z,99617.94
2023-03-06T18:43:40.128Z,99611.97
2023-03-06T18:46:06.689Z,99602.81
2023-03-06T18:48:33.182Z,99598.50
2023-03-06T18:51:07.860Z,99598.38
2023-03-06T18:53:34.920Z,99589.25
2023-03-06T18:56:01.908Z,99586.53
2023-03-06T18:58:28.378Z,99584.03
2023-03-06T19:00:55.869Z,99590.69
2023-03-06T19:03:23.230Z,99589.81
2023-03-06T19:05:49.828Z,99579.72
2023-03-06T19:08:17.704Z,99576.25
2023-03-06T19:10:49.897Z,99577.09
2023-03-06T19:13:16.531Z,99575.28
2023-03-06T19:15:45.551Z,99577.88
2023-03-06T19:18:15.368Z,99571.06
2023-03-06T19:20:41.937Z,99572.59
2023-03-06T19:23:09.202Z,99569.00
2023-03-06T19:25:36.292Z,99566.38
2023-03-06T19:28:03.469Z,99565.31
2023-03-06T19:30:29.984Z,99560.03
2023-03-06T19:32:56.965Z,99556.75
2023-03-06T19:35:24.686Z,99554.81
2023-03-06T19:37:52.004Z,99548.84
2023-03-06T19:40:18.959Z,99547.84
2023-03-06T19:42:46.189Z,99545.34
2023-03-06T19:45:12.822Z,99542.13
2023-03-06T19:47:39.441Z,99536.34
2023-03-06T19:50:06.582Z,99533.66
2023-03-06T19:52:37.213Z,99527.69
2023-03-06T19:55:04.102Z,99526.03
2023-03-06T19:57:30.805Z,99523.56
2023-03-06T19:59:58.657Z,99517.69
2023-03-06T20:02:27.149Z,99508.47
2023-03-06T20:04:54.945Z,99503.38
2023-03-06T20:07:22.127Z,99498.19
2023-03-06T20:09:48.928Z,99493.94
2023-03-06T20:12:15.803Z,99490.38
2023-03-06T20:14:42.837Z,99491.81
2023-03-06T20:17:09.608Z,99483.34
2023-03-06T20:19:36.577Z,99475.66
2023-03-06T20:22:03.606Z,99473.81
2023-03-06T20:24:30.307Z,99472.72
2023-03-06T20:26:58.335Z,99459.38
2023-03-06T20:29:28.124Z,99457.56
2023-03-06T20:31:56.882Z,99445.16
2023-03-06T20:34:25.715Z,99439.66
2023-03-06T20:36:52.812Z,99438.13
2023-03-06T20:39:21.711Z,99440.63
2023-03-06T20:41:48.768Z,99435.53
2023-03-06T20:44:18.230Z,99432.19
2023-03-06T20:46:45.768Z,99413.19
2023-03-06T20:49:13.144Z,99431.09
2023-03-06T20:51:40.342Z,99421.03
2023-03-06T20:54:09.807Z,99422.63
2023-03-06T20:56:39.320Z,99412.56
2023-03-06T20:59:06.421Z,99407.66
2023-03-06T21:01:36.163Z,99396.63
2023-03-06T21:04:04.397Z,99395.09
2023-03-06T21:06:31.852Z,99393.25
2023-03-06T21:08:59.794Z,99391.53
2023-03-06T21:11:27.829Z,99381.44
2023-03-06T21:13:55.154Z,99386.53
2023-03-06T21:16:24.039Z,99374.91
2023-03-06T21:18:50.876Z,99375.13
2023-03-06T21:21:20.232Z,99368.63
2023-03-06T21:23:48.273Z,99362.97
2023-03-06T21:26:20.809Z,99354.03
2023-03-06T21:28:47.692Z,99354.25
2023-03-06T21:31:16.319Z,99342.06
2023-03-06T21:33:43.835Z,99338.13
2023-03-06T21:36:11.096Z,99335.16
2023-03-06T21:38:38.010Z,99319.63
2023-03-06T21:41:16.877Z,99309.81
2023-03-06T21:43:43.851Z,99311.66
2023-03-06T21:46:11.912Z,99315.28
2023-03-06T21:48:38.597Z,99306.28
2023-03-06T21:51:06.245Z,99296.50
2023-03-06T21:53:32.922Z,99290.16
2023-03-06T21:56:01.595Z,99292.81
2023-03-06T21:58:29.232Z,99283.06
2023-03-06T22:00:56.087Z,99283.13
2023-03-06T22:03:22.869Z,99269.09
2023-03-06T22:05:49.507Z,99267.50
2023-03-06T22:08:16.132Z,99258.44
2023-03-06T22:10:42.808Z,99259.50
2023-03-06T22:13:09.478Z,99249.69
2023-03-06T22:15:36.469Z,99247.28
2023-03-06T22:18:03.216Z,99239.09
2023-03-06T22:20:29.877Z,99230.06
2023-03-06T22:22:56.533Z,99231.03
2023-03-06T22:25:23.173Z,99225.34
2023-03-06T22:27:49.813Z,99227.28
2023-03-06T22:30:17.721Z,99224.03
2023-03-06T22:32:44.471Z,99214.09
2023-03-06T22:35:11.177Z,99206.72
2023-03-06T22:37:37.881Z,99209.38
2023-03-06T22:40:04.964Z,99191.03
2023-03-06T22:42:31.666Z,99188.53
2023-03-06T22:44:58.315Z,99180.28
2023-03-06T22:47:24.938Z,99176.88
2023-03-06T22:49:51.598Z,99171.13
2023-03-06T22:52:19.521Z,99167.78
2023-03-06T22:54:46.141Z,99161.91
2023-03-06T22:57:12.813Z,99144.06
2023-03-06T22:59:39.498Z,99152.69
2023-03-06T23:02:06.158Z,99146.03
2023-03-06T23:04:32.850Z,99136.91
2023-03-06T23:06:59.572Z,99137.69
2023-03-06T23:09:26.599Z,99130.19
2023-03-06T23:11:53.359Z,99124.34
2023-03-06T23:14:20.201Z,99116.72
2023-03-06T23:16:47.053Z,99105.88
2023-03-06T23:19:13.725Z,99093.28
2023-03-06T23:21:40.947Z,99084.84
2023-03-06T23:24:07.685Z,99075.63
2023-03-06T23:26:34.933Z,99072.34
2023-03-06T23:29:01.952Z,99070.63
2023-03-06T23:31:30.698Z,99068.88
2023-03-06T23:33:59.770Z,99059.69
2023-03-06T23:36:27.062Z,99047.88
2023-03-06T23:38:54.151Z,99044.50
2023-03-06T23:41:22.185Z,99047.19
2023-03-06T23:43:49.856Z,99043.81
2023-03-06T23:46:17.068Z,99038.81
2023-03-06T23:48:44.421Z,99031.41
2023-03-06T23:51:19.300Z,99023.16
2023-03-06T23:53:46.817Z,99025.66
2023-03-06T23:56:13.610Z,99024.00
2023-03-06T23:58:40.792Z,99014.78
